Time;durP1;ratioP1;P1;durP2;ratioP2;P2;SDS_P1;SDS_P2;PMS_P1;PMS_P2;Temp;Humidity;BMP_temperature;BMP_pressure;BME280_temperature;BME280_humidity;BME280_pressure;Samples;Min_cycle;Max_cycle;Signal;HPM_P1;HPM_P2
2021/03/28 00:00:01;;;;;;;15.85;4.20;;;8.60;75.10;;;;;;4974942;28;20050;-75
2021/03/28 00:02:48;;;;;;;22.17;3.97;;;8.60;74.90;;;;;;4976236;28;20041;-75
2021/03/28 00:05:30;;;;;;;18.10;4.00;;;8.60;74.70;;;;;;4959068;28;20034;-75
2021/03/28 00:07:59;;;;;;;19.50;4.00;;;8.60;74.50;;;;;;4976531;28;20045;-76
2021/03/28 00:10:30;;;;;;;13.35;3.42;;;8.60;74.30;;;;;;4975896;28;20202;-75
2021/03/28 00:13:08;;;;;;;16.98;3.50;;;8.60;74.10;;;;;;4976249;28;20038;-75
2021/03/28 00:15:59;;;;;;;17.88;2.67;;;8.60;73.60;;;;;;4974898;28;20068;-75
2021/03/28 00:18:32;;;;;;;12.70;3.33;;;8.60;73.20;;;;;;4975625;28;20047;-76
2021/03/28 00:21:15;;;;;;;22.13;3.80;;;8.60;73.20;;;;;;4958780;28;20157;-75
2021/03/28 00:24:10;;;;;;;18.40;3.35;;;8.60;72.90;;;;;;4974942;28;20078;-75
2021/03/28 00:26:44;;;;;;;18.38;4.32;;;8.50;72.70;;;;;;4975303;28;20086;-75
2021/03/28 00:29:23;;;;;;;13.97;3.63;;;8.50;72.90;;;;;;4974248;28;20519;-75
2021/03/28 00:32:09;;;;;;;20.02;3.85;;;8.50;73.40;;;;;;4975947;28;20030;-75
2021/03/28 00:34:41;;;;;;;15.93;4.07;;;8.50;73.10;;;;;;4974111;28;20038;-76
2021/03/28 00:37:09;;;;;;;21.13;3.60;;;8.40;73.10;;;;;;4975637;28;20031;-75
2021/03/28 00:39:42;;;;;;;19.30;3.65;;;8.40;73.50;;;;;;4975414;28;20093;-75
2021/03/28 00:42:30;;;;;;;20.20;3.72;;;8.30;73.40;;;;;;4958454;28;20053;-75
2021/03/28 00:45:47;;;;;;;16.02;3.83;;;8.30;73.60;;;;;;4974747;28;20077;-75
2021/03/28 00:48:17;;;;;;;13.40;2.95;;;8.20;73.50;;;;;;4932833;28;20034;-75
2021/03/28 00:50:52;;;;;;;17.38;4.18;;;8.20;73.60;;;;;;4975863;28;20042;-75
2021/03/28 00:53:38;;;;;;;18.40;3.72;;;8.20;73.30;;;;;;4975679;28;20404;-75
2021/03/28 00:56:07;;;;;;;19.30;3.50;;;8.20;73.00;;;;;;4975978;28;20049;-75
2021/03/28 00:59:01;;;;;;;17.70;3.67;;;8.20;72.40;;;;;;4959178;28;20050;-75
2021/03/28 01:01:38;;;;;;;14.05;3.40;;;8.20;72.00;;;;;;4947247;28;20038;-75
2021/03/28 01:04:42;;;;;;;14.15;3.55;;;8.20;72.10;;;;;;4974290;28;20042;-75
2021/03/28 01:07:27;;;;;;;16.45;3.58;;;8.20;72.10;;;;;;4975853;28;20117;-75
2021/03/28 01:10:02;;;;;;;16.38;3.30;;;8.20;71.70;;;;;;4975477;28;20043;-75
2021/03/28 01:13:05;;;;;;;14.95;3.70;;;8.20;72.30;;;;;;4975881;28;20125;-75
2021/03/28 01:15:49;;;;;;;21.63;3.58;;;8.20;72.30;;;;;;4975587;28;20500;-76
2021/03/28 01:18:53;;;;;;;15.38;3.63;;;8.20;72.10;;;;;;4958422;28;20066;-76
2021/03/28 01:21:47;;;;;;;17.35;3.60;;;8.10;72.10;;;;;;4975443;28;20045;-76
2021/03/28 01:24:50;;;;;;;13.55;3.83;;;8.10;72.10;;;;;;4975576;28;20039;-76
2021/03/28 01:27:35;;;;;;;15.05;3.70;;;8.00;72.30;;;;;;4958023;28;20062;-76
2021/03/28 01:30:10;;;;;;;;;;;8.00;72.50;;;;;;4974573;28;20097;-76
2021/03/28 01:32:40;;;;;;;;;;;7.90;72.20;;;;;;4974966;28;19910;-76
2021/03/28 01:35:13;;;;;;;16.60;3.67;;;7.90;72.20;;;;;;4978090;28;20409;-76
2021/03/28 01:37:57;;;;;;;18.90;3.38;;;7.80;72.70;;;;;;4979343;28;20045;-76
2021/03/28 01:40:47;;;;;;;24.25;7.15;;;7.80;72.60;;;;;;4977580;28;20471;-76
2021/03/28 01:43:24;;;;;;;26.50;6.35;;;7.80;73.00;;;;;;4978086;28;20049;-76
2021/03/28 01:46:12;;;;;;;19.38;4.57;;;7.80;72.70;;;;;;4977590;28;20039;-76
2021/03/28 01:48:53;;;;;;;13.98;3.90;;;7.80;72.70;;;;;;4977922;28;20130;-76
2021/03/28 01:51:31;;;;;;;12.30;3.30;;;7.70;72.70;;;;;;4979031;28;20039;-76
2021/03/28 01:54:28;;;;;;;15.65;3.45;;;7.70;72.60;;;;;;4961344;28;20058;-76
2021/03/28 01:56:53;;;;;;;17.77;3.20;;;7.70;72.60;;;;;;4961611;28;20383;-76
2021/03/28 01:59:31;;;;;;;13.80;3.40;;;7.70;72.40;;;;;;4978954;28;20053;-75
2021/03/28 02:02:28;;;;;;;15.23;3.08;;;7.70;72.30;;;;;;4978678;28;20043;-75
2021/03/28 02:05:30;;;;;;;15.52;3.42;;;7.80;72.10;;;;;;4961524;28;20076;-75
2021/03/28 02:08:43;;;;;;;15.35;3.75;;;7.80;71.70;;;;;;4977846;28;20045;-76
2021/03/28 02:11:31;;;;;;;17.35;3.47;;;7.90;71.40;;;;;;4977219;28;20035;-76
2021/03/28 02:14:34;;;;;;;12.57;3.42;;;7.90;71.10;;;;;;4978666;28;20085;-76
2021/03/28 02:17:15;;;;;;;12.80;3.20;;;7.90;71.00;;;;;;4977125;28;20039;-75
2021/03/28 02:19:55;;;;;;;15.65;3.85;;;7.90;70.80;;;;;;4978439;28;20053;-75
2021/03/28 02:22:31;;;;;;;14.93;4.30;;;7.80;70.90;;;;;;4979027;28;20039;-75
2021/03/28 02:25:35;;;;;;;12.93;3.30;;;7.90;70.90;;;;;;4976887;28;20506;-75
2021/03/28 02:28:19;;;;;;;11.07;3.03;;;7.80;70.70;;;;;;4978681;28;20138;-75
2021/03/28 02:31:01;;;;;;;12.52;2.95;;;7.80;71.40;;;;;;4961016;28;20395;-75
2021/03/28 02:33:51;;;;;;;17.17;2.97;;;7.80;71.50;;;;;;4976825;28;20047;-75
2021/03/28 02:36:43;;;;;;;14.85;3.55;;;7.80;71.80;;;;;;4978627;28;20077;-75
2021/03/28 02:39:24;;;;;;;12.13;3.42;;;7.70;72.20;;;;;;4978035;28;20034;-75
2021/03/28 02:42:02;;;;;;;14.43;4.28;;;7.70;72.10;;;;;;4976809;28;20096;-75
2021/03/28 02:44:38;;;;;;;13.27;3.95;;;7.70;72.60;;;;;;4976914;28;20070;-75
2021/03/28 02:47:11;;;;;;;15.07;3.00;;;7.70;72.30;;;;;;4960559;28;20047;-75
2021/03/28 02:49:59;;;;;;;10.38;2.80;;;7.70;72.20;;;;;;4977843;28;20484;-75
2021/03/28 02:53:00;;;;;;;11.07;2.88;;;7.70;72.10;;;;;;4960558;28;20042;-75
2021/03/28 02:55:54;;;;;;;16.70;3.92;;;7.70;72.20;;;;;;4960373;28;20049;-75
2021/03/28 02:59:00;;;;;;;13.85;3.85;;;7.70;72.50;;;;;;4978157;28;20051;-75
2021/03/28 03:01:57;;;;;;;15.48;3.58;;;7.70;72.50;;;;;;4977277;28;20472;-75
2021/03/28 03:05:00;;;;;;;16.30;3.97;;;7.70;72.40;;;;;;4960250;28;20129;-75
2021/03/28 03:07:31;;;;;;;15.50;3.75;;;7.70;72.20;;;;;;4978035;28;20063;-75
2021/03/28 03:09:57;;;;;;;12.45;3.60;;;7.70;72.60;;;;;;4977415;28;20044;-75
2021/03/28 03:12:29;;;;;;;13.50;4.18;;;7.70;72.70;;;;;;4960700;28;20459;-75
2021/03/28 03:15:33;;;;;;;14.18;3.67;;;7.70;72.90;;;;;;4977754;28;20066;-75
2021/03/28 03:18:44;;;;;;;22.75;4.47;;;7.60;72.90;;;;;;4936971;28;20031;-75
2021/03/28 03:21:16;;;;;;;12.27;3.47;;;7.60;72.80;;;;;;4977136;28;20134;-75
2021/03/28 03:24:07;;;;;;;16.92;4.70;;;7.60;72.90;;;;;;4977126;28;20090;-75
2021/03/28 03:26:48;;;;;;;15.60;3.78;;;7.60;73.20;;;;;;4959427;28;20042;-75
2021/03/28 03:30:08;;;;;;;15.18;3.92;;;7.60;73.20;;;;;;4977516;28;20034;-75
2021/03/28 03:32:58;;;;;;;12.48;3.88;;;7.60;73.10;;;;;;4898642;29;20052;-76
2021/03/28 03:35:41;;;;;;;16.15;4.40;;;7.50;73.00;;;;;;4973407;28;20049;-76
2021/03/28 03:38:38;;;;;;;15.20;3.95;;;7.50;73.00;;;;;;4959617;28;20043;-76
2021/03/28 03:41:22;;;;;;;14.98;3.75;;;7.60;72.80;;;;;;4976761;28;20053;-76
2021/03/28 03:44:12;;;;;;;11.88;3.40;;;7.60;72.70;;;;;;4959402;28;20475;-76
2021/03/28 03:46:53;;;;;;;11.73;4.18;;;7.60;72.20;;;;;;4976478;28;20039;-76
2021/03/28 03:49:52;;;;;;;14.40;3.00;;;7.60;72.50;;;;;;4975476;28;20352;-76
2021/03/28 03:52:25;;;;;;;10.43;3.65;;;7.60;72.40;;;;;;4959564;28;20088;-76
2021/03/28 03:55:04;;;;;;;20.48;4.15;;;7.60;72.10;;;;;;4976323;28;20050;-76
2021/03/28 03:57:35;;;;;;;37.10;5.05;;;7.60;72.50;;;;;;4976336;28;20043;-76
2021/03/28 04:00:09;;;;;;;17.55;3.63;;;7.60;72.30;;;;;;4976609;28;20049;-75
2021/03/28 04:02:46;;;;;;;10.57;3.00;;;7.70;71.60;;;;;;4976368;28;20046;-75
2021/03/28 04:05:27;;;;;;;15.23;3.40;;;7.70;71.00;;;;;;4959029;28;20065;-75
2021/03/28 04:08:33;;;;;;;14.48;2.92;;;7.70;71.20;;;;;;4959525;28;20504;-75
2021/03/28 04:11:36;;;;;;;14.57;3.63;;;7.70;71.60;;;;;;4976080;28;20035;-75
2021/03/28 04:14:35;;;;;;;16.23;3.60;;;7.70;71.10;;;;;;4975916;28;20065;-75
2021/03/28 04:17:08;;;;;;;19.05;3.28;;;7.60;71.30;;;;;;4974731;28;20117;-75
2021/03/28 04:20:00;;;;;;;10.85;2.90;;;7.60;71.20;;;;;;4958588;28;20057;-75
2021/03/28 04:22:57;;;;;;;9.40;2.80;;;7.60;70.90;;;;;;4974241;28;20042;-75
2021/03/28 04:25:41;;;;;;;13.93;3.83;;;7.60;70.70;;;;;;4975783;28;20045;-76
2021/03/28 04:28:19;;;;;;;9.82;2.55;;;7.50;70.40;;;;;;4976098;28;20073;-75
2021/03/28 04:30:57;;;;;;;10.13;2.67;;;7.50;70.50;;;;;;4975778;28;20174;-75
2021/03/28 04:33:41;;;;;;;14.43;3.78;;;7.50;70.50;;;;;;4975665;28;20094;-74
2021/03/28 04:36:35;;;;;;;11.55;2.67;;;7.40;70.80;;;;;;4974376;28;20066;-75
2021/03/28 04:39:38;;;;;;;10.63;3.10;;;7.40;70.90;;;;;;4973921;28;20109;-75
2021/03/28 04:42:33;;;;;;;12.38;3.10;;;7.40;70.90;;;;;;4975924;28;20109;-74
2021/03/28 04:45:26;;;;;;;11.10;2.80;;;7.30;71.30;;;;;;4982854;28;20043;-75
2021/03/28 04:48:01;;;;;;;13.32;4.38;;;7.30;71.30;;;;;;4977929;28;20038;-76
2021/03/28 04:51:17;;;;;;;9.52;2.70;;;7.20;71.70;;;;;;4975878;28;20041;-76
2021/03/28 04:53:48;;;;;;;15.18;3.83;;;7.20;71.60;;;;;;4975467;28;20046;-76
2021/03/28 04:56:33;;;;;;;13.65;3.20;;;7.20;71.40;;;;;;4958248;28;20071;-76
2021/03/28 04:59:24;;;;;;;12.32;2.85;;;7.20;71.90;;;;;;4974451;28;20039;-76
2021/03/28 05:02:18;;;;;;;15.70;3.60;;;7.20;72.00;;;;;;4975862;28;20035;-76
2021/03/28 05:05:02;;;;;;;9.27;2.83;;;7.20;71.30;;;;;;4958500;28;20043;-76
2021/03/28 05:07:38;;;;;;;22.00;5.47;;;7.20;70.90;;;;;;4958005;28;20035;-76
2021/03/28 05:10:30;;;;;;;13.63;3.08;;;7.20;70.50;;;;;;4979247;28;20488;-76
2021/03/28 05:13:28;;;;;;;12.35;2.90;;;7.20;70.40;;;;;;4980071;28;20034;-76
2021/03/28 05:16:24;;;;;;;11.80;2.67;;;7.20;69.80;;;;;;4956535;28;20133;-76
2021/03/28 05:19:16;;;;;;;10.35;2.78;;;7.20;70.00;;;;;;4961782;28;20508;-76
2021/03/28 05:22:10;;;;;;;16.30;3.47;;;7.20;70.40;;;;;;4963693;28;20049;-76
2021/03/28 05:25:34;;;;;;;9.38;2.90;;;7.20;70.40;;;;;;4963869;28;20066;-76
2021/03/28 05:28:24;;;;;;;10.18;2.90;;;7.10;71.30;;;;;;4961274;28;20043;-76
2021/03/28 05:31:24;;;;;;;9.57;2.90;;;7.10;70.90;;;;;;5000458;28;20180;-77
2021/03/28 05:34:18;;;;;;;12.32;3.13;;;7.10;71.50;;;;;;5000974;28;20043;-75
2021/03/28 05:37:10;;;;;;;9.05;2.60;;;7.10;71.60;;;;;;5001430;28;20083;-76
2021/03/28 05:39:36;;;;;;;12.15;3.17;;;7.10;71.40;;;;;;4999856;28;20066;-78
2021/03/28 05:42:40;;;;;;;11.63;3.20;;;7.00;71.20;;;;;;4962806;28;20491;-76
2021/03/28 05:45:43;;;;;;;15.20;3.45;;;7.00;71.40;;;;;;4961868;28;20043;-75
2021/03/28 05:48:46;;;;;;;86.22;10.35;;;7.00;71.00;;;;;;4978660;28;20101;-75
2021/03/28 05:51:41;;;;;;;14.93;3.40;;;7.10;72.70;;;;;;4978813;28;20113;-75
2021/03/28 05:54:57;;;;;;;14.50;3.13;;;7.10;73.90;;;;;;4978120;28;20059;-76
2021/03/28 05:57:39;;;;;;;30.15;5.05;;;6.90;74.30;;;;;;4979318;28;20097;-75
2021/03/28 06:00:39;;;;;;;15.82;3.40;;;6.90;74.00;;;;;;4978817;28;20183;-75
2021/03/28 06:03:20;;;;;;;15.25;3.15;;;6.90;74.30;;;;;;4960908;28;20046;-75
2021/03/28 06:06:23;;;;;;;15.95;3.63;;;6.80;74.50;;;;;;4961512;28;20507;-75
2021/03/28 06:08:49;;;;;;;14.02;3.50;;;6.90;74.60;;;;;;4978536;28;20542;-75
2021/03/28 06:11:38;;;;;;;16.30;4.30;;;6.90;73.90;;;;;;4978771;28;20043;-74
2021/03/28 06:14:43;;;;;;;14.02;4.00;;;6.80;75.00;;;;;;4975160;28;20035;-75
2021/03/28 06:17:22;;;;;;;10.68;2.83;;;6.80;75.20;;;;;;4961839;28;20046;-75
2021/03/28 06:20:22;;;;;;;12.23;3.25;;;6.80;74.40;;;;;;4960472;28;20047;-74
2021/03/28 06:23:11;;;;;;;14.57;3.85;;;6.80;75.30;;;;;;4978437;28;20070;-75
2021/03/28 06:26:22;;;;;;;10.52;3.05;;;6.80;72.40;;;;;;4972551;28;20034;-75
2021/03/28 06:29:27;;;;;;;12.25;3.38;;;6.90;72.50;;;;;;4960592;28;20043;-75
2021/03/28 06:32:11;;;;;;;12.27;3.42;;;7.00;72.00;;;;;;4978069;28;20435;-75
2021/03/28 06:34:55;;;;;;;11.75;3.45;;;7.10;71.90;;;;;;4960243;28;20042;-76
2021/03/28 06:37:43;;;;;;;9.88;3.58;;;7.10;71.90;;;;;;4960491;28;20122;-75
2021/03/28 06:40:39;;;;;;;12.02;3.70;;;7.20;71.10;;;;;;4977888;28;20058;-75
2021/03/28 06:43:52;;;;;;;9.82;3.00;;;7.30;70.70;;;;;;4974217;28;20050;-75
2021/03/28 06:46:27;;;;;;;12.60;3.50;;;7.30;70.80;;;;;;4978491;28;20145;-75
2021/03/28 06:49:22;;;;;;;9.63;2.97;;;7.30;69.70;;;;;;4960352;28;20081;-74
2021/03/28 06:51:59;;;;;;;8.75;2.83;;;7.40;69.40;;;;;;4941739;28;20052;-75
2021/03/28 06:54:28;;;;;;;13.80;2.85;;;7.50;69.60;;;;;;4977912;28;20042;-75
2021/03/28 06:57:15;;;;;;;11.75;3.33;;;7.50;69.50;;;;;;4960189;28;20043;-76
2021/03/28 06:59:53;;;;;;;10.65;3.17;;;7.50;69.50;;;;;;4960841;28;20047;-75
2021/03/28 07:02:44;;;;;;;12.23;3.28;;;7.60;68.80;;;;;;4977728;28;20077;-75
2021/03/28 07:05:28;;;;;;;12.13;2.95;;;7.70;68.90;;;;;;4960167;28;20037;-75
2021/03/28 07:08:30;;;;;;;10.93;2.63;;;7.70;69.10;;;;;;4960604;28;20089;-76
2021/03/28 07:11:14;;;;;;;8.93;3.00;;;7.90;68.30;;;;;;4936455;29;20045;-76
2021/03/28 07:14:30;;;;;;;14.23;3.38;;;8.10;67.80;;;;;;4973783;28;20077;-76
2021/03/28 07:17:44;;;;;;;10.25;3.20;;;8.20;67.10;;;;;;4954459;28;20045;-77
2021/03/28 07:20:20;;;;;;;11.18;2.85;;;8.40;66.20;;;;;;4940909;28;20437;-77
2021/03/28 07:23:19;;;;;;;8.65;2.90;;;8.60;65.60;;;;;;4977318;28;20043;-76
2021/03/28 07:25:54;;;;;;;9.80;2.95;;;8.70;65.30;;;;;;4977107;28;20046;-76
2021/03/28 07:28:57;;;;;;;10.38;3.67;;;8.90;65.30;;;;;;4977083;28;20041;-76
2021/03/28 07:31:48;;;;;;;10.10;2.92;;;9.00;64.60;;;;;;4959384;28;20396;-76
2021/03/28 07:34:17;;;;;;;7.72;3.10;;;9.10;64.70;;;;;;4977457;28;20038;-76
2021/03/28 07:37:20;;;;;;;14.55;2.70;;;9.10;64.40;;;;;;4959819;28;20042;-77
2021/03/28 07:40:10;;;;;;;10.05;2.92;;;9.30;64.60;;;;;;4976848;28;20041;-77
2021/03/28 07:43:00;;;;;;;17.60;3.13;;;9.40;63.80;;;;;;4959611;28;20042;-77
2021/03/28 07:45:56;;;;;;;16.55;2.75;;;9.40;63.20;;;;;;4976921;28;20138;-76
2021/03/28 07:48:48;;;;;;;12.73;3.00;;;9.50;63.30;;;;;;4959576;28;20035;-76
2021/03/28 07:51:53;;;;;;;16.10;6.43;;;9.60;62.60;;;;;;4959419;28;20042;-77
2021/03/28 07:54:52;;;;;;;9.00;2.75;;;9.70;63.00;;;;;;4974101;28;20043;-79
2021/03/28 07:57:23;;;;;;;14.20;2.90;;;9.90;62.60;;;;;;4959199;28;20051;-77
2021/03/28 08:00:08;;;;;;;13.30;2.58;;;10.10;62.30;;;;;;4975737;28;20097;-77
2021/03/28 08:02:55;;;;;;;11.10;2.78;;;10.20;60.80;;;;;;4993084;28;20066;-76
2021/03/28 08:05:51;;;;;;;7.85;2.70;;;10.30;61.10;;;;;;4995078;28;20045;-77
2021/03/28 08:08:41;;;;;;;9.45;2.35;;;10.70;60.70;;;;;;4995706;28;20475;-77
2021/03/28 08:11:18;;;;;;;8.48;2.30;;;10.80;59.70;;;;;;4995118;28;20046;-78
2021/03/28 08:14:16;;;;;;;12.90;2.60;;;10.90;59.50;;;;;;4994101;28;20034;-77
2021/03/28 08:16:58;;;;;;;7.15;2.13;;;11.10;59.40;;;;;;4995828;28;20054;-78
2021/03/28 08:20:01;;;;;;;10.07;2.60;;;11.10;58.90;;;;;;4994273;28;20042;-77
2021/03/28 08:23:03;;;;;;;9.02;2.30;;;11.20;58.90;;;;;;4995060;28;20046;-76
2021/03/28 08:25:47;;;;;;;9.88;2.28;;;11.40;58.70;;;;;;4995390;28;20077;-76
2021/03/28 08:28:50;;;;;;;10.52;2.67;;;11.70;57.10;;;;;;4995349;28;20125;-77
2021/03/28 08:31:22;;;;;;;11.63;2.70;;;11.90;56.50;;;;;;4995325;28;20038;-77
2021/03/28 08:34:11;;;;;;;7.70;2.15;;;12.10;56.30;;;;;;4995507;28;20038;-75
2021/03/28 08:37:21;;;;;;;10.90;2.25;;;12.20;55.10;;;;;;4955242;28;20049;-76
2021/03/28 08:40:17;;;;;;;8.30;2.17;;;12.30;55.30;;;;;;4994834;28;20046;-77
2021/03/28 08:43:04;;;;;;;9.18;1.90;;;12.50;55.10;;;;;;4992266;28;20055;-75
2021/03/28 08:45:52;;;;;;;13.23;2.50;;;12.40;55.10;;;;;;4976545;28;20091;-76
2021/03/28 08:48:51;;;;;;;8.75;2.22;;;12.60;55.10;;;;;;4994438;28;20073;-75
2021/03/28 08:51:17;;;;;;;6.15;2.03;;;12.60;55.10;;;;;;4994498;28;20046;-76
2021/03/28 08:54:31;;;;;;;11.80;2.50;;;12.70;54.80;;;;;;4993151;28;20042;-76
2021/03/28 08:57:11;;;;;;;7.47;2.30;;;12.80;54.80;;;;;;4976591;28;20042;-77
2021/03/28 09:00:04;;;;;;;10.25;2.97;;;13.00;54.20;;;;;;4995096;28;20104;-76
2021/03/28 09:02:55;;;;;;;11.40;3.25;;;13.00;54.70;;;;;;4994072;28;20061;-77
2021/03/28 09:05:41;;;;;;;9.73;2.42;;;13.00;54.90;;;;;;4994938;28;20162;-74
2021/03/28 09:08:32;;;;;;;6.80;2.05;;;13.10;55.60;;;;;;4994401;28;20491;-79
2021/03/28 09:11:43;;;;;;;8.50;2.40;;;13.20;55.50;;;;;;4993556;28;20042;-75
2021/03/28 09:14:42;;;;;;;7.78;2.40;;;13.40;55.10;;;;;;4994821;28;20042;-77
2021/03/28 09:17:37;;;;;;;14.65;2.97;;;13.40;55.00;;;;;;4977387;28;20069;-77
2021/03/28 09:20:47;;;;;;;11.93;2.45;;;13.60;55.30;;;;;;4994800;28;20045;-80
2021/03/28 09:23:42;;;;;;;10.25;3.15;;;13.90;54.60;;;;;;4915602;29;20036;-83
2021/03/28 09:26:21;;;;;;;8.10;2.20;;;14.10;54.00;;;;;;4994776;28;20034;-84
2021/03/28 09:29:15;;;;;;;9.35;3.30;;;14.00;54.30;;;;;;4993773;28;20459;-83
2021/03/28 09:31:56;;;;;;;6.20;2.63;;;14.00;54.20;;;;;;4993680;28;20034;-83
2021/03/28 09:34:43;;;;;;;9.43;2.78;;;14.20;53.60;;;;;;4993339;28;20070;-83
2021/03/28 09:37:35;;;;;;;10.55;2.50;;;14.50;53.00;;;;;;4995275;28;20099;-77
2021/03/28 09:40:19;;;;;;;7.95;2.30;;;14.90;52.80;;;;;;4989471;28;20043;-78
2021/03/28 09:43:13;;;;;;;8.43;2.17;;;15.10;52.60;;;;;;4973492;28;20047;-78
2021/03/28 09:45:47;;;;;;;10.60;2.00;;;15.10;53.20;;;;;;4973443;28;20042;-78
2021/03/28 09:48:34;;;;;;;11.23;2.53;;;15.30;52.50;;;;;;4989724;28;20552;-78
2021/03/28 09:51:25;;;;;;;7.63;1.90;;;15.50;50.80;;;;;;4973191;28;20506;-78
2021/03/28 09:53:54;;;;;;;7.35;2.33;;;15.40;51.20;;;;;;4975443;28;20065;-80
2021/03/28 09:56:25;;;;;;;7.95;1.90;;;15.50;51.20;;;;;;4976909;28;20043;-78
2021/03/28 09:59:16;;;;;;;9.60;2.33;;;15.70;50.80;;;;;;4978019;28;20125;-78
2021/03/28 10:01:53;;;;;;;9.57;2.60;;;15.80;51.80;;;;;;4978402;28;20503;-78
2021/03/28 10:04:31;;;;;;;8.15;1.92;;;15.90;50.50;;;;;;4978593;28;20101;-77
2021/03/28 10:07:02;;;;;;;9.38;2.42;;;15.90;50.20;;;;;;4977521;28;20063;-78
2021/03/28 10:09:37;;;;;;;9.50;2.13;;;16.10;51.00;;;;;;4992950;28;20129;-81
2021/03/28 10:12:56;;;;;;;9.02;2.28;;;16.20;51.80;;;;;;4976932;28;20031;-77
2021/03/28 10:15:24;;;;;;;10.45;2.13;;;16.30;51.40;;;;;;4942694;28;20151;-78
2021/03/28 10:18:32;;;;;;;15.18;2.33;;;16.30;51.40;;;;;;4992633;28;20039;-78
2021/03/28 10:21:15;;;;;;;8.57;2.38;;;16.30;51.20;;;;;;4992704;28;20503;-78
2021/03/28 10:24:08;;;;;;;6.47;2.38;;;16.30;52.40;;;;;;4976077;28;20133;-79
2021/03/28 10:27:11;;;;;;;7.40;2.10;;;16.40;52.40;;;;;;4981470;28;20047;-76
2021/03/28 10:29:44;;;;;;;9.35;2.40;;;16.60;52.60;;;;;;4977609;28;20118;-78
2021/03/28 10:32:31;;;;;;;5.90;1.88;;;16.80;51.90;;;;;;4978071;28;20066;-78
2021/03/28 10:35:19;;;;;;;12.02;3.25;;;16.80;52.90;;;;;;4975541;28;20126;-77
2021/03/28 10:38:29;;;;;;;8.50;2.28;;;16.70;52.30;;;;;;4977748;28;20037;-78
2021/03/28 10:41:16;;;;;;;9.40;2.60;;;16.90;52.10;;;;;;4987806;28;20042;-77
2021/03/28 10:44:20;;;;;;;17.70;2.17;;;17.10;50.20;;;;;;4996599;28;20094;-78
2021/03/28 10:47:04;;;;;;;11.20;2.65;;;16.90;50.90;;;;;;4997258;28;20066;-77
2021/03/28 10:50:02;;;;;;;7.88;2.00;;;17.00;51.30;;;;;;4997290;28;20041;-77
2021/03/28 10:52:50;;;;;;;10.40;2.17;;;17.40;50.60;;;;;;4997660;28;20050;-77
2021/03/28 10:55:21;;;;;;;8.45;2.58;;;17.40;49.10;;;;;;4996671;28;20030;-77
2021/03/28 10:58:24;;;;;;;9.02;2.05;;;17.20;50.10;;;;;;4997015;28;20034;-77
2021/03/28 11:01:20;;;;;;;11.88;2.10;;;17.50;49.10;;;;;;4997010;28;20069;-78
2021/03/28 11:04:09;;;;;;;5.32;2.10;;;17.70;48.10;;;;;;4978902;28;20507;-77
2021/03/28 11:07:11;;;;;;;7.72;1.95;;;17.70;47.50;;;;;;4995745;28;20047;-77
2021/03/28 11:10:12;;;;;;;9.95;2.00;;;17.60;47.50;;;;;;4996507;28;20447;-77
2021/03/28 11:12:41;;;;;;;6.50;1.70;;;17.70;47.70;;;;;;4996325;28;20047;-77
2021/03/28 11:15:22;;;;;;;9.02;1.70;;;17.70;46.30;;;;;;4995026;28;20042;-78
2021/03/28 11:18:22;;;;;;;9.50;2.45;;;17.90;47.30;;;;;;4996551;28;20058;-78
2021/03/28 11:21:23;;;;;;;6.47;1.83;;;18.20;47.30;;;;;;4996341;28;20035;-78
2021/03/28 11:24:19;;;;;;;6.13;1.50;;;18.50;46.40;;;;;;4996605;28;20049;-78
2021/03/28 11:27:22;;;;;;;10.57;1.95;;;18.60;46.70;;;;;;4996642;28;20484;-78
2021/03/28 11:29:56;;;;;;;7.68;1.88;;;18.50;47.60;;;;;;4995927;28;20121;-78
2021/03/28 11:32:49;;;;;;;9.13;1.85;;;18.60;46.70;;;;;;4994520;28;20139;-78
2021/03/28 11:35:24;;;;;;;6.90;1.77;;;18.40;45.60;;;;;;4996262;28;20045;-78
2021/03/28 11:38:13;;;;;;;5.57;1.73;;;18.50;47.00;;;;;;4994304;28;20045;-77
2021/03/28 11:40:40;;;;;;;8.05;2.05;;;18.60;45.40;;;;;;4993534;28;20053;-78
2021/03/28 11:43:11;;;;;;;9.32;1.88;;;18.50;44.70;;;;;;4995401;28;20061;-78
2021/03/28 11:45:46;;;;;;;12.05;2.00;;;18.40;45.50;;;;;;4994086;28;20054;-77
2021/03/28 11:48:38;;;;;;;19.63;2.65;;;18.50;44.60;;;;;;4995393;28;20137;-78
2021/03/28 11:51:27;;;;;;;10.30;2.20;;;18.70;46.60;;;;;;4995574;28;20092;-78
2021/03/28 11:54:11;;;;;;;11.02;2.38;;;18.60;50.90;;;;;;4977226;28;20042;-78
2021/03/28 11:56:46;;;;;;;9.60;2.20;;;18.30;53.10;;;;;;4995311;28;20039;-79
2021/03/28 11:59:24;;;;;;;11.90;2.40;;;18.20;53.80;;;;;;4995417;28;20042;-77
2021/03/28 12:02:00;;;;;;;11.57;2.10;;;18.10;54.50;;;;;;4995571;28;20050;-77
2021/03/28 12:04:41;;;;;;;11.45;2.38;;;18.20;53.60;;;;;;4995453;28;20046;-78
2021/03/28 12:07:30;;;;;;;12.40;2.55;;;18.00;54.30;;;;;;4995812;28;20349;-78
2021/03/28 12:10:24;;;;;;;6.25;2.35;;;18.10;55.80;;;;;;4995370;28;20066;-78
2021/03/28 12:12:49;;;;;;;7.53;2.08;;;18.10;55.60;;;;;;4995304;28;20529;-79
2021/03/28 12:15:43;;;;;;;17.25;2.65;;;18.30;54.70;;;;;;4994124;28;20042;-78
2021/03/28 12:18:25;;;;;;;9.50;2.10;;;18.30;54.40;;;;;;4993781;28;20042;-77
2021/03/28 12:21:02;;;;;;;10.60;2.25;;;18.40;52.70;;;;;;4995095;28;20046;-78
2021/03/28 12:23:52;;;;;;;7.97;2.00;;;18.40;51.70;;;;;;4993970;28;20096;-78
2021/03/28 12:26:29;;;;;;;17.85;2.42;;;18.50;51.70;;;;;;4994930;28;20056;-77
2021/03/28 12:29:12;;;;;;;6.75;2.08;;;18.60;49.50;;;;;;4994846;28;20365;-77
2021/03/28 12:31:52;;;;;;;9.77;2.08;;;18.70;50.00;;;;;;4993131;28;20050;-77
2021/03/28 12:34:23;;;;;;;7.32;2.17;;;18.90;49.80;;;;;;4993376;28;20053;-78
2021/03/28 12:37:07;;;;;;;12.15;2.40;;;18.80;50.20;;;;;;4993578;28;20085;-77
2021/03/28 12:39:45;;;;;;;14.40;2.63;;;18.80;49.40;;;;;;4994591;28;20038;-78
2021/03/28 12:42:18;;;;;;;8.13;1.73;;;18.90;49.20;;;;;;4995696;28;20495;-78
2021/03/28 12:44:52;;;;;;;11.68;1.73;;;19.00;46.80;;;;;;4995189;28;20042;-78
2021/03/28 12:47:20;;;;;;;;;;;19.20;47.40;;;;;;4977720;28;20042;-78
2021/03/28 12:49:58;;;;;;;11.93;1.92;;;19.00;48.20;;;;;;4995078;28;19937;-78
2021/03/28 12:52:48;;;;;;;9.60;1.70;;;19.00;47.30;;;;;;4995183;28;20042;-79
2021/03/28 12:55:24;;;;;;;14.02;3.95;;;18.90;46.00;;;;;;4994837;28;20503;-79
2021/03/28 12:57:54;;;;;;;5.57;1.80;;;19.00;44.20;;;;;;4993357;28;20469;-79
2021/03/28 13:00:25;;;;;;;9.57;1.73;;;18.80;42.70;;;;;;4995130;28;20042;-78
2021/03/28 13:02:53;;;;;;;14.68;1.88;;;18.60;42.90;;;;;;4993313;28;20042;-77
2021/03/28 13:05:30;;;;;;;13.23;2.30;;;18.50;42.80;;;;;;4993494;28;20051;-77
2021/03/28 13:08:18;;;;;;;7.85;1.65;;;18.60;44.30;;;;;;4993664;28;20041;-77
2021/03/28 13:10:45;;;;;;;12.80;2.00;;;18.80;42.90;;;;;;4994826;28;20030;-76
2021/03/28 13:13:14;;;;;;;7.70;1.70;;;18.90;43.70;;;;;;4994956;28;20048;-77
2021/03/28 13:15:49;;;;;;;6.45;1.77;;;19.00;42.60;;;;;;4987201;28;20447;-77
2021/03/28 13:18:40;;;;;;;7.97;1.85;;;19.00;42.90;;;;;;5009682;28;20046;-77
2021/03/28 13:21:21;;;;;;;6.82;1.70;;;19.20;42.20;;;;;;4994667;28;20038;-77
2021/03/28 13:23:46;;;;;;;7.65;1.40;;;19.20;41.90;;;;;;4995116;28;20045;-78
2021/03/28 13:26:17;;;;;;;13.60;1.65;;;19.40;41.00;;;;;;4993293;28;20034;-78
2021/03/28 13:29:12;;;;;;;8.90;1.50;;;19.50;41.50;;;;;;4994411;28;20121;-76
2021/03/28 13:31:38;;;;;;;8.95;1.58;;;19.40;41.30;;;;;;4997075;28;20038;-77
2021/03/28 13:34:40;;;;;;;7.97;1.67;;;19.30;41.20;;;;;;4998417;28;20397;-77
2021/03/28 13:37:06;;;;;;;11.57;2.22;;;19.40;41.40;;;;;;4993130;28;20054;-77
2021/03/28 13:39:58;;;;;;;7.65;1.70;;;19.50;42.00;;;;;;4997742;28;20440;-80
2021/03/28 13:42:51;;;;;;;8.15;1.98;;;19.50;41.70;;;;;;4995957;28;20081;-77
2021/03/28 13:45:17;;;;;;;9.43;1.90;;;19.70;42.00;;;;;;4993675;28;20046;-79
2021/03/28 13:47:54;;;;;;;6.75;1.42;;;19.70;41.40;;;;;;4997528;28;20145;-78
2021/03/28 13:51:25;;;;;;;8.93;2.20;;;19.50;41.60;;;;;;4996151;28;20034;-77
2021/03/28 13:53:53;;;;;;;5.18;1.60;;;19.30;41.50;;;;;;4953482;29;20102;-77
2021/03/28 13:56:22;;;;;;;8.45;2.00;;;19.30;41.50;;;;;;4957266;29;20050;-77
2021/03/28 13:59:03;;;;;;;7.95;2.38;;;19.10;42.20;;;;;;4983583;28;20034;-79
2021/03/28 14:01:34;;;;;;;11.63;1.70;;;19.10;43.00;;;;;;4997492;28;20376;-77
2021/03/28 14:04:36;;;;;;;6.70;1.83;;;19.20;42.50;;;;;;4997313;28;20046;-77
2021/03/28 14:07:14;;;;;;;7.43;1.70;;;19.30;43.40;;;;;;4997563;28;20129;-77
2021/03/28 14:09:47;;;;;;;8.75;1.70;;;19.30;42.70;;;;;;4997303;28;20121;-77
2021/03/28 14:12:37;;;;;;;8.07;2.22;;;19.40;43.20;;;;;;4997663;28;20529;-77
2021/03/28 14:15:22;;;;;;;6.78;1.60;;;19.30;43.80;;;;;;4997429;28;20045;-77
2021/03/28 14:18:12;;;;;;;7.93;2.35;;;19.30;42.60;;;;;;4997654;28;20054;-78
2021/03/28 14:20:46;;;;;;;10.95;4.10;;;19.30;42.90;;;;;;4991401;28;20125;-78
2021/03/28 14:23:11;;;;;;;9.47;2.43;;;19.40;43.00;;;;;;4994656;28;20057;-77
2021/03/28 14:25:54;;;;;;;9.73;1.95;;;19.30;41.40;;;;;;4995500;28;20265;-77